sensor_id;sensor_type;location;lat;lon;timestamp;temperature;humidity
26743;DHT22;14341;51.256;22.478;2022-10-24T00:00:08;7.00;99.90
26743;DHT22;14341;51.256;22.478;2022-10-24T00:03:12;7.00;99.90
26743;DHT22;14341;51.256;22.478;2022-10-24T00:06:17;6.90;99.90
26743;DHT22;14341;51.256;22.478;2022-10-24T00:09:21;6.90;99.90
26743;DHT22;14341;51.256;22.478;2022-10-24T00:12:25;6.90;99.90
26743;DHT22;14341;51.256;22.478;2022-10-24T00:15:29;6.90;99.90
26743;DHT22;14341;51.256;22.478;2022-10-24T00:18:32;6.90;99.90
26743;DHT22;14341;51.256;22.478;2022-10-24T00:21:35;7.10;99.90
26743;DHT22;14341;51.256;22.478;2022-10-24T00:24:38;7.20;99.90
26743;DHT22;14341;51.256;22.478;2022-10-24T00:27:43;7.50;99.90
26743;DHT22;14341;51.256;22.478;2022-10-24T00:30:50;7.40;99.90
26743;DHT22;14341;51.256;22.478;2022-10-24T00:33:53;7.40;99.90
26743;DHT22;14341;51.256;22.478;2022-10-24T00:36:57;7.40;99.90
26743;DHT22;14341;51.256;22.478;2022-10-24T00:40:00;7.40;99.90
26743;DHT22;14341;51.256;22.478;2022-10-24T00:43:12;7.50;99.90
26743;DHT22;14341;51.256;22.478;2022-10-24T00:46:16;7.40;99.90
26743;DHT22;14341;51.256;22.478;2022-10-24T00:49:23;7.50;99.90
26743;DHT22;14341;51.256;22.478;2022-10-24T00:52:30;7.60;99.90
26743;DHT22;14341;51.256;22.478;2022-10-24T00:55:34;7.50;99.90
26743;DHT22;14341;51.256;22.478;2022-10-24T00:58:40;7.50;99.90
26743;DHT22;14341;51.256;22.478;2022-10-24T01:01:45;7.50;99.90
26743;DHT22;14341;51.256;22.478;2022-10-24T01:04:49;7.40;99.90
26743;DHT22;14341;51.256;22.478;2022-10-24T01:08:02;7.50;99.90
26743;DHT22;14341;51.256;22.478;2022-10-24T01:11:11;7.50;99.90
26743;DHT22;14341;51.256;22.478;2022-10-24T01:14:32;7.40;99.90
26743;DHT22;14341;51.256;22.478;2022-10-24T01:17:43;7.40;99.90
26743;DHT22;14341;51.256;22.478;2022-10-24T01:21:14;7.50;99.90
26743;DHT22;14341;51.256;22.478;2022-10-24T01:24:35;7.50;99.90
26743;DHT22;14341;51.256;22.478;2022-10-24T01:27:56;7.40;99.90
26743;DHT22;14341;51.256;22.478;2022-10-24T01:31:07;7.40;99.90
26743;DHT22;14341;51.256;22.478;2022-10-24T01:34:16;7.50;99.90
26743;DHT22;14341;51.256;22.478;2022-10-24T01:37:26;7.40;99.90
26743;DHT22;14341;51.256;22.478;2022-10-24T01:40:34;7.50;99.90
26743;DHT22;14341;51.256;22.478;2022-10-24T01:43:41;7.60;99.90
26743;DHT22;14341;51.256;22.478;2022-10-24T01:46:51;7.60;99.90
26743;DHT22;14341;51.256;22.478;2022-10-24T01:49:58;7.70;99.90
26743;DHT22;14341;51.256;22.478;2022-10-24T01:53:04;7.70;99.90
26743;DHT22;14341;51.256;22.478;2022-10-24T01:56:07;7.80;99.90
26743;DHT22;14341;51.256;22.478;2022-10-24T01:59:38;7.80;99.90
26743;DHT22;14341;51.256;22.478;2022-10-24T02:02:46;8.00;99.90
26743;DHT22;14341;51.256;22.478;2022-10-24T02:05:53;8.00;99.90
26743;DHT22;14341;51.256;22.478;2022-10-24T02:09:02;8.00;99.90
26743;DHT22;14341;51.256;22.478;2022-10-24T02:12:08;8.00;99.90
26743;DHT22;14341;51.256;22.478;2022-10-24T02:15:15;8.00;99.90
26743;DHT22;14341;51.256;22.478;2022-10-24T02:18:22;8.00;99.90
26743;DHT22;14341;51.256;22.478;2022-10-24T02:21:30;8.00;99.90
26743;DHT22;14341;51.256;22.478;2022-10-24T02:24:40;8.10;99.90
26743;DHT22;14341;51.256;22.478;2022-10-24T02:27:48;8.00;99.90
26743;DHT22;14341;51.256;22.478;2022-10-24T02:30:56;8.20;99.90
26743;DHT22;14341;51.256;22.478;2022-10-24T02:34:05;8.20;99.90
26743;DHT22;14341;51.256;22.478;2022-10-24T02:37:10;8.20;99.90
26743;DHT22;14341;51.256;22.478;2022-10-24T02:40:16;8.30;99.90
26743;DHT22;14341;51.256;22.478;2022-10-24T02:43:20;8.30;99.90
26743;DHT22;14341;51.256;22.478;2022-10-24T02:46:25;8.20;99.90
26743;DHT22;14341;51.256;22.478;2022-10-24T02:49:30;8.10;99.90
26743;DHT22;14341;51.256;22.478;2022-10-24T02:52:34;8.10;99.90
26743;DHT22;14341;51.256;22.478;2022-10-24T02:55:38;8.30;99.90
26743;DHT22;14341;51.256;22.478;2022-10-24T02:58:42;8.20;99.90
26743;DHT22;14341;51.256;22.478;2022-10-24T03:01:45;8.20;99.90
26743;DHT22;14341;51.256;22.478;2022-10-24T03:04:50;8.10;99.90
26743;DHT22;14341;51.256;22.478;2022-10-24T03:07:53;8.10;99.90
26743;DHT22;14341;51.256;22.478;2022-10-24T03:10:56;8.00;99.90
26743;DHT22;14341;51.256;22.478;2022-10-24T03:14:00;8.00;99.90
26743;DHT22;14341;51.256;22.478;2022-10-24T03:17:03;7.90;99.90
26743;DHT22;14341;51.256;22.478;2022-10-24T03:20:09;7.90;99.90
26743;DHT22;14341;51.256;22.478;2022-10-24T03:23:12;7.90;99.90
26743;DHT22;14341;51.256;22.478;2022-10-24T03:26:16;8.00;99.90
26743;DHT22;14341;51.256;22.478;2022-10-24T03:29:20;8.10;99.90
26743;DHT22;14341;51.256;22.478;2022-10-24T03:32:33;8.00;99.90
26743;DHT22;14341;51.256;22.478;2022-10-24T03:35:41;8.10;99.90
26743;DHT22;14341;51.256;22.478;2022-10-24T03:38:44;8.10;99.90
26743;DHT22;14341;51.256;22.478;2022-10-24T03:41:47;8.10;99.90
26743;DHT22;14341;51.256;22.478;2022-10-24T03:44:50;8.00;99.90
26743;DHT22;14341;51.256;22.478;2022-10-24T03:47:54;8.00;99.90
26743;DHT22;14341;51.256;22.478;2022-10-24T03:50:59;7.90;99.90
26743;DHT22;14341;51.256;22.478;2022-10-24T03:54:02;7.90;99.90
26743;DHT22;14341;51.256;22.478;2022-10-24T03:57:06;7.80;99.90
26743;DHT22;14341;51.256;22.478;2022-10-24T04:00:11;7.80;99.90
26743;DHT22;14341;51.256;22.478;2022-10-24T04:03:14;7.90;99.90
26743;DHT22;14341;51.256;22.478;2022-10-24T04:06:19;7.80;99.90
26743;DHT22;14341;51.256;22.478;2022-10-24T04:09:22;7.90;99.90
26743;DHT22;14341;51.256;22.478;2022-10-24T04:12:25;8.00;99.90
26743;DHT22;14341;51.256;22.478;2022-10-24T04:15:29;7.90;99.90
26743;DHT22;14341;51.256;22.478;2022-10-24T04:18:32;7.90;99.90
26743;DHT22;14341;51.256;22.478;2022-10-24T04:21:37;7.90;99.90
26743;DHT22;14341;51.256;22.478;2022-10-24T04:24:41;8.00;99.90
26743;DHT22;14341;51.256;22.478;2022-10-24T04:27:44;8.00;99.90
26743;DHT22;14341;51.256;22.478;2022-10-24T04:30:53;8.00;99.90
26743;DHT22;14341;51.256;22.478;2022-10-24T04:33:57;7.90;99.90
26743;DHT22;14341;51.256;22.478;2022-10-24T04:37:01;8.00;99.90
26743;DHT22;14341;51.256;22.478;2022-10-24T04:40:06;7.90;99.90
26743;DHT22;14341;51.256;22.478;2022-10-24T04:43:09;7.90;99.90
26743;DHT22;14341;51.256;22.478;2022-10-24T04:46:12;7.80;99.90
26743;DHT22;14341;51.256;22.478;2022-10-24T04:49:16;8.00;99.90
26743;DHT22;14341;51.256;22.478;2022-10-24T04:52:21;8.00;99.90
26743;DHT22;14341;51.256;22.478;2022-10-24T04:55:24;8.00;99.90
26743;DHT22;14341;51.256;22.478;2022-10-24T04:58:28;8.00;99.90
26743;DHT22;14341;51.256;22.478;2022-10-24T05:01:31;8.10;99.90
26743;DHT22;14341;51.256;22.478;2022-10-24T05:04:35;8.20;99.90
26743;DHT22;14341;51.256;22.478;2022-10-24T05:07:40;8.20;99.90
26743;DHT22;14341;51.256;22.478;2022-10-24T05:10:44;8.30;99.90
26743;DHT22;14341;51.256;22.478;2022-10-24T05:13:47;8.40;99.90
26743;DHT22;14341;51.256;22.478;2022-10-24T05:16:50;8.60;99.90
26743;DHT22;14341;51.256;22.478;2022-10-24T05:19:54;8.60;99.90
26743;DHT22;14341;51.256;22.478;2022-10-24T05:22:58;8.80;99.90
26743;DHT22;14341;51.256;22.478;2022-10-24T05:26:02;8.90;99.90
26743;DHT22;14341;51.256;22.478;2022-10-24T05:29:06;8.90;99.90
26743;DHT22;14341;51.256;22.478;2022-10-24T05:32:09;9.00;99.90
26743;DHT22;14341;51.256;22.478;2022-10-24T05:35:12;9.00;99.90
26743;DHT22;14341;51.256;22.478;2022-10-24T05:38:17;9.10;99.90
26743;DHT22;14341;51.256;22.478;2022-10-24T05:41:20;9.10;99.90
26743;DHT22;14341;51.256;22.478;2022-10-24T05:44:24;9.10;99.90
26743;DHT22;14341;51.256;22.478;2022-10-24T05:47:27;9.20;99.90
26743;DHT22;14341;51.256;22.478;2022-10-24T05:50:30;9.20;99.90
26743;DHT22;14341;51.256;22.478;2022-10-24T05:53:35;9.30;99.90
26743;DHT22;14341;51.256;22.478;2022-10-24T05:56:38;9.30;99.90
26743;DHT22;14341;51.256;22.478;2022-10-24T05:59:41;9.40;99.90
26743;DHT22;14341;51.256;22.478;2022-10-24T06:02:45;9.40;99.90
26743;DHT22;14341;51.256;22.478;2022-10-24T06:05:49;9.50;99.90
26743;DHT22;14341;51.256;22.478;2022-10-24T06:08:54;9.50;99.90
26743;DHT22;14341;51.256;22.478;2022-10-24T06:11:57;9.60;99.90
26743;DHT22;14341;51.256;22.478;2022-10-24T06:15:00;9.60;99.90
26743;DHT22;14341;51.256;22.478;2022-10-24T06:18:04;9.70;99.90
26743;DHT22;14341;51.256;22.478;2022-10-24T06:21:08;9.80;99.90
26743;DHT22;14341;51.256;22.478;2022-10-24T06:24:13;9.80;99.90
26743;DHT22;14341;51.256;22.478;2022-10-24T06:27:16;9.90;99.90
26743;DHT22;14341;51.256;22.478;2022-10-24T06:30:19;10.00;99.90
26743;DHT22;14341;51.256;22.478;2022-10-24T06:33:23;10.00;99.90
26743;DHT22;14341;51.256;22.478;2022-10-24T06:36:26;10.00;99.90
26743;DHT22;14341;51.256;22.478;2022-10-24T06:39:33;10.00;99.90
26743;DHT22;14341;51.256;22.478;2022-10-24T06:42:37;10.10;99.90
26743;DHT22;14341;51.256;22.478;2022-10-24T06:45:40;10.20;99.90
26743;DHT22;14341;51.256;22.478;2022-10-24T06:48:43;10.20;99.90
26743;DHT22;14341;51.256;22.478;2022-10-24T06:51:47;10.20;99.90
26743;DHT22;14341;51.256;22.478;2022-10-24T06:54:51;10.20;99.90
26743;DHT22;14341;51.256;22.478;2022-10-24T06:57:55;10.30;99.90
26743;DHT22;14341;51.256;22.478;2022-10-24T07:00:59;10.30;99.90
26743;DHT22;14341;51.256;22.478;2022-10-24T07:04:02;10.40;99.90
26743;DHT22;14341;51.256;22.478;2022-10-24T07:07:06;10.30;99.90
26743;DHT22;14341;51.256;22.478;2022-10-24T07:10:16;10.40;99.90
26743;DHT22;14341;51.256;22.478;2022-10-24T07:13:20;10.40;99.90
26743;DHT22;14341;51.256;22.478;2022-10-24T07:16:24;10.40;99.90
26743;DHT22;14341;51.256;22.478;2022-10-24T07:19:27;10.50;99.90
26743;DHT22;14341;51.256;22.478;2022-10-24T07:22:35;10.50;99.90
26743;DHT22;14341;51.256;22.478;2022-10-24T07:25:40;10.60;99.90
26743;DHT22;14341;51.256;22.478;2022-10-24T07:28:45;10.70;99.90
26743;DHT22;14341;51.256;22.478;2022-10-24T07:31:49;10.80;99.90
26743;DHT22;14341;51.256;22.478;2022-10-24T07:34:52;10.90;99.90
26743;DHT22;14341;51.256;22.478;2022-10-24T07:37:56;10.90;99.90
26743;DHT22;14341;51.256;22.478;2022-10-24T07:41:03;10.80;99.90
26743;DHT22;14341;51.256;22.478;2022-10-24T07:44:07;10.90;99.90
26743;DHT22;14341;51.256;22.478;2022-10-24T07:47:11;11.00;99.90
26743;DHT22;14341;51.256;22.478;2022-10-24T07:50:14;11.00;99.90
26743;DHT22;14341;51.256;22.478;2022-10-24T07:53:18;11.10;99.90
26743;DHT22;14341;51.256;22.478;2022-10-24T07:56:23;11.20;99.90
26743;DHT22;14341;51.256;22.478;2022-10-24T07:59:28;11.30;99.90
26743;DHT22;14341;51.256;22.478;2022-10-24T08:02:43;11.50;99.90
26743;DHT22;14341;51.256;22.478;2022-10-24T08:05:46;11.50;99.90
26743;DHT22;14341;51.256;22.478;2022-10-24T08:08:50;11.70;99.90
26743;DHT22;14341;51.256;22.478;2022-10-24T08:11:55;11.80;99.90
26743;DHT22;14341;51.256;22.478;2022-10-24T08:14:58;11.80;99.90
26743;DHT22;14341;51.256;22.478;2022-10-24T08:18:02;11.90;99.90
26743;DHT22;14341;51.256;22.478;2022-10-24T08:21:07;12.00;99.90
26743;DHT22;14341;51.256;22.478;2022-10-24T08:24:11;12.20;99.90
26743;DHT22;14341;51.256;22.478;2022-10-24T08:27:15;12.30;99.90
26743;DHT22;14341;51.256;22.478;2022-10-24T08:30:19;12.50;99.90
26743;DHT22;14341;51.256;22.478;2022-10-24T08:33:22;12.50;99.90
26743;DHT22;14341;51.256;22.478;2022-10-24T08:36:28;12.70;99.90
26743;DHT22;14341;51.256;22.478;2022-10-24T08:39:32;12.70;99.90
26743;DHT22;14341;51.256;22.478;2022-10-24T08:42:37;12.80;99.90
26743;DHT22;14341;51.256;22.478;2022-10-24T08:45:45;12.80;99.90
26743;DHT22;14341;51.256;22.478;2022-10-24T08:48:57;12.90;99.90
26743;DHT22;14341;51.256;22.478;2022-10-24T08:52:02;13.10;99.90
26743;DHT22;14341;51.256;22.478;2022-10-24T08:55:11;13.10;99.90
26743;DHT22;14341;51.256;22.478;2022-10-24T08:58:42;13.10;99.90
26743;DHT22;14341;51.256;22.478;2022-10-24T09:01:48;13.30;99.90
26743;DHT22;14341;51.256;22.478;2022-10-24T09:04:56;13.60;99.90
26743;DHT22;14341;51.256;22.478;2022-10-24T09:08:03;13.80;99.90
26743;DHT22;14341;51.256;22.478;2022-10-24T09:11:15;14.20;99.90
26743;DHT22;14341;51.256;22.478;2022-10-24T09:14:25;14.50;99.90
26743;DHT22;14341;51.256;22.478;2022-10-24T09:17:30;14.60;99.90
26743;DHT22;14341;51.256;22.478;2022-10-24T09:20:34;14.70;99.90
26743;DHT22;14341;51.256;22.478;2022-10-24T09:23:38;14.50;99.90
26743;DHT22;14341;51.256;22.478;2022-10-24T09:26:41;14.50;99.90
26743;DHT22;14341;51.256;22.478;2022-10-24T09:29:48;14.50;99.90
26743;DHT22;14341;51.256;22.478;2022-10-24T09:32:52;14.50;99.90
26743;DHT22;14341;51.256;22.478;2022-10-24T09:35:58;14.90;99.90
26743;DHT22;14341;51.256;22.478;2022-10-24T09:39:26;15.20;99.90
26743;DHT22;14341;51.256;22.478;2022-10-24T09:42:29;15.60;99.90
26743;DHT22;14341;51.256;22.478;2022-10-24T09:45:41;15.60;99.90
26743;DHT22;14341;51.256;22.478;2022-10-24T09:48:49;15.40;99.90
26743;DHT22;14341;51.256;22.478;2022-10-24T09:52:02;15.40;99.90
26743;DHT22;14341;51.256;22.478;2022-10-24T09:55:16;15.30;99.90
26743;DHT22;14341;51.256;22.478;2022-10-24T09:58:23;15.30;99.90
26743;DHT22;14341;51.256;22.478;2022-10-24T10:01:32;15.10;99.90
26743;DHT22;14341;51.256;22.478;2022-10-24T10:04:36;14.70;99.90
26743;DHT22;14341;51.256;22.478;2022-10-24T10:07:40;14.60;99.90
26743;DHT22;14341;51.256;22.478;2022-10-24T10:10:57;15.10;99.90
26743;DHT22;14341;51.256;22.478;2022-10-24T10:14:01;15.20;99.90
26743;DHT22;14341;51.256;22.478;2022-10-24T10:17:06;15.60;99.90
26743;DHT22;14341;51.256;22.478;2022-10-24T10:20:22;15.90;99.90
26743;DHT22;14341;51.256;22.478;2022-10-24T10:23:29;16.00;99.90
26743;DHT22;14341;51.256;22.478;2022-10-24T10:26:43;16.40;99.90
26743;DHT22;14341;51.256;22.478;2022-10-24T10:29:46;16.50;99.90
26743;DHT22;14341;51.256;22.478;2022-10-24T10:33:03;16.90;99.90
26743;DHT22;14341;51.256;22.478;2022-10-24T10:36:13;17.50;99.90
26743;DHT22;14341;51.256;22.478;2022-10-24T10:39:27;17.60;99.90
26743;DHT22;14341;51.256;22.478;2022-10-24T10:42:35;17.30;99.90
26743;DHT22;14341;51.256;22.478;2022-10-24T10:45:42;17.70;99.90
26743;DHT22;14341;51.256;22.478;2022-10-24T10:48:59;17.80;99.90
26743;DHT22;14341;51.256;22.478;2022-10-24T10:52:06;17.50;99.90
26743;DHT22;14341;51.256;22.478;2022-10-24T10:55:20;17.60;99.90
26743;DHT22;14341;51.256;22.478;2022-10-24T10:58:34;18.10;96.30
26743;DHT22;14341;51.256;22.478;2022-10-24T11:01:47;18.40;95.70
26743;DHT22;14341;51.256;22.478;2022-10-24T11:05:10;17.90;93.80
26743;DHT22;14341;51.256;22.478;2022-10-24T11:08:43;17.10;99.90
26743;DHT22;14341;51.256;22.478;2022-10-24T11:11:52;17.00;99.90
26743;DHT22;14341;51.256;22.478;2022-10-24T11:15:01;17.00;99.90
26743;DHT22;14341;51.256;22.478;2022-10-24T11:18:08;16.80;99.90
26743;DHT22;14341;51.256;22.478;2022-10-24T11:21:15;17.20;99.90
26743;DHT22;14341;51.256;22.478;2022-10-24T11:24:23;17.70;99.90
26743;DHT22;14341;51.256;22.478;2022-10-24T11:27:33;17.30;99.90
26743;DHT22;14341;51.256;22.478;2022-10-24T11:30:44;17.00;99.90
26743;DHT22;14341;51.256;22.478;2022-10-24T11:33:52;17.00;99.90
26743;DHT22;14341;51.256;22.478;2022-10-24T11:37:02;17.40;99.90
26743;DHT22;14341;51.256;22.478;2022-10-24T11:40:11;17.60;99.90
26743;DHT22;14341;51.256;22.478;2022-10-24T11:43:20;17.30;99.90
26743;DHT22;14341;51.256;22.478;2022-10-24T11:46:30;17.20;99.90
26743;DHT22;14341;51.256;22.478;2022-10-24T11:49:38;17.60;99.90
26743;DHT22;14341;51.256;22.478;2022-10-24T11:52:47;17.80;99.90
26743;DHT22;14341;51.256;22.478;2022-10-24T11:55:55;17.90;99.90
26743;DHT22;14341;51.256;22.478;2022-10-24T11:59:02;18.20;97.00
26743;DHT22;14341;51.256;22.478;2022-10-24T12:06:05;18.40;85.90
26743;DHT22;14341;51.256;22.478;2022-10-24T12:09:39;18.50;84.40
26743;DHT22;14341;51.256;22.478;2022-10-24T12:13:08;18.30;74.20
26743;DHT22;14341;51.256;22.478;2022-10-24T12:16:24;17.90;90.60
26743;DHT22;14341;51.256;22.478;2022-10-24T12:19:32;17.70;94.80
26743;DHT22;14341;51.256;22.478;2022-10-24T12:22:40;17.50;99.50
26743;DHT22;14341;51.256;22.478;2022-10-24T12:25:46;17.30;99.90
26743;DHT22;14341;51.256;22.478;2022-10-24T12:28:55;17.40;99.90
26743;DHT22;14341;51.256;22.478;2022-10-24T12:32:22;17.20;99.90
26743;DHT22;14341;51.256;22.478;2022-10-24T12:35:46;17.00;99.90
26743;DHT22;14341;51.256;22.478;2022-10-24T12:39:05;17.00;99.90
26743;DHT22;14341;51.256;22.478;2022-10-24T12:42:13;17.00;99.90
26743;DHT22;14341;51.256;22.478;2022-10-24T12:45:28;17.00;99.90
26743;DHT22;14341;51.256;22.478;2022-10-24T12:48:33;17.20;99.90
26743;DHT22;14341;51.256;22.478;2022-10-24T12:51:38;17.20;99.90
26743;DHT22;14341;51.256;22.478;2022-10-24T12:54:42;17.30;99.90
26743;DHT22;14341;51.256;22.478;2022-10-24T12:57:47;17.50;99.90
26743;DHT22;14341;51.256;22.478;2022-10-24T13:00:54;17.30;99.90
26743;DHT22;14341;51.256;22.478;2022-10-24T13:04:27;17.20;99.90
26743;DHT22;14341;51.256;22.478;2022-10-24T13:07:54;17.20;99.90
26743;DHT22;14341;51.256;22.478;2022-10-24T13:11:11;17.30;99.90
26743;DHT22;14341;51.256;22.478;2022-10-24T13:14:40;17.10;99.90
26743;DHT22;14341;51.256;22.478;2022-10-24T13:17:51;17.00;99.90
26743;DHT22;14341;51.256;22.478;2022-10-24T13:21:22;17.00;99.90
26743;DHT22;14341;51.256;22.478;2022-10-24T13:24:30;17.20;99.90
26743;DHT22;14341;51.256;22.478;2022-10-24T13:27:36;17.50;99.90
26743;DHT22;14341;51.256;22.478;2022-10-24T13:30:40;17.80;99.90
26743;DHT22;14341;51.256;22.478;2022-10-24T13:33:48;18.10;99.90
26743;DHT22;14341;51.256;22.478;2022-10-24T13:37:19;18.20;99.90
26743;DHT22;14341;51.256;22.478;2022-10-24T13:40:28;18.40;96.30
26743;DHT22;14341;51.256;22.478;2022-10-24T13:43:32;18.20;91.20
26743;DHT22;14341;51.256;22.478;2022-10-24T13:46:41;18.10;95.70
26743;DHT22;14341;51.256;22.478;2022-10-24T13:49:56;18.40;96.40
26743;DHT22;14341;51.256;22.478;2022-10-24T13:53:04;18.40;95.20
26743;DHT22;14341;51.256;22.478;2022-10-24T13:56:14;18.00;97.40
26743;DHT22;14341;51.256;22.478;2022-10-24T13:59:28;17.80;99.90
26743;DHT22;14341;51.256;22.478;2022-10-24T14:02:38;17.50;99.90
26743;DHT22;14341;51.256;22.478;2022-10-24T14:05:46;17.10;99.90
26743;DHT22;14341;51.256;22.478;2022-10-24T14:08:50;17.10;99.90
26743;DHT22;14341;51.256;22.478;2022-10-24T14:12:16;16.80;99.90
26743;DHT22;14341;51.256;22.478;2022-10-24T14:15:22;16.50;99.90
26743;DHT22;14341;51.256;22.478;2022-10-24T14:18:28;16.60;99.90
26743;DHT22;14341;51.256;22.478;2022-10-24T14:21:39;16.40;99.90
26743;DHT22;14341;51.256;22.478;2022-10-24T14:24:44;16.30;99.90
26743;DHT22;14341;51.256;22.478;2022-10-24T14:27:47;16.20;99.90
26743;DHT22;14341;51.256;22.478;2022-10-24T14:30:52;16.10;99.90
26743;DHT22;14341;51.256;22.478;2022-10-24T14:33:57;16.00;99.90
26743;DHT22;14341;51.256;22.478;2022-10-24T14:37:03;15.90;99.90
26743;DHT22;14341;51.256;22.478;2022-10-24T14:40:14;15.80;99.90
26743;DHT22;14341;51.256;22.478;2022-10-24T14:43:19;15.80;99.90
26743;DHT22;14341;51.256;22.478;2022-10-24T14:46:30;15.70;99.90
26743;DHT22;14341;51.256;22.478;2022-10-24T14:49:36;15.50;99.90
26743;DHT22;14341;51.256;22.478;2022-10-24T14:52:43;15.40;99.90
26743;DHT22;14341;51.256;22.478;2022-10-24T14:55:51;15.30;99.90
26743;DHT22;14341;51.256;22.478;2022-10-24T14:58:56;15.10;99.90
26743;DHT22;14341;51.256;22.478;2022-10-24T15:02:02;15.00;99.90
26743;DHT22;14341;51.256;22.478;2022-10-24T15:05:29;14.90;99.90
26743;DHT22;14341;51.256;22.478;2022-10-24T15:08:35;14.80;99.90
26743;DHT22;14341;51.256;22.478;2022-10-24T15:11:40;14.70;99.90
26743;DHT22;14341;51.256;22.478;2022-10-24T15:14:44;14.50;99.90
26743;DHT22;14341;51.256;22.478;2022-10-24T15:17:58;14.40;99.90
26743;DHT22;14341;51.256;22.478;2022-10-24T15:21:05;14.10;99.90
26743;DHT22;14341;51.256;22.478;2022-10-24T15:24:18;13.90;99.90
26743;DHT22;14341;51.256;22.478;2022-10-24T15:27:25;13.70;99.90
26743;DHT22;14341;51.256;22.478;2022-10-24T15:30:31;13.50;99.90
26743;DHT22;14341;51.256;22.478;2022-10-24T15:33:35;13.30;99.90
26743;DHT22;14341;51.256;22.478;2022-10-24T15:36:41;13.10;99.90
26743;DHT22;14341;51.256;22.478;2022-10-24T15:39:45;12.90;99.90
26743;DHT22;14341;51.256;22.478;2022-10-24T15:42:48;12.70;99.90
26743;DHT22;14341;51.256;22.478;2022-10-24T15:45:52;12.60;99.90
26743;DHT22;14341;51.256;22.478;2022-10-24T15:48:55;12.50;99.90
26743;DHT22;14341;51.256;22.478;2022-10-24T15:52:00;12.40;99.90
26743;DHT22;14341;51.256;22.478;2022-10-24T15:55:16;12.30;99.90
26743;DHT22;14341;51.256;22.478;2022-10-24T15:58:20;12.10;99.90
26743;DHT22;14341;51.256;22.478;2022-10-24T16:01:26;12.00;99.90
26743;DHT22;14341;51.256;22.478;2022-10-24T16:04:31;11.80;99.90
26743;DHT22;14341;51.256;22.478;2022-10-24T16:07:36;11.80;99.90
26743;DHT22;14341;51.256;22.478;2022-10-24T16:10:41;11.70;99.90
26743;DHT22;14341;51.256;22.478;2022-10-24T16:13:44;11.70;99.90
26743;DHT22;14341;51.256;22.478;2022-10-24T16:16:48;11.60;99.90
26743;DHT22;14341;51.256;22.478;2022-10-24T16:19:51;11.60;99.90
26743;DHT22;14341;51.256;22.478;2022-10-24T16:22:56;11.60;99.90
26743;DHT22;14341;51.256;22.478;2022-10-24T16:25:59;11.70;99.90
26743;DHT22;14341;51.256;22.478;2022-10-24T16:29:03;11.60;99.90
26743;DHT22;14341;51.256;22.478;2022-10-24T16:32:08;11.70;99.90
26743;DHT22;14341;51.256;22.478;2022-10-24T16:35:17;11.80;99.90
26743;DHT22;14341;51.256;22.478;2022-10-24T16:38:22;11.90;99.90
26743;DHT22;14341;51.256;22.478;2022-10-24T16:41:25;11.90;99.90
26743;DHT22;14341;51.256;22.478;2022-10-24T16:44:30;12.10;99.90
26743;DHT22;14341;51.256;22.478;2022-10-24T16:47:37;12.20;99.90
26743;DHT22;14341;51.256;22.478;2022-10-24T16:50:41;12.30;99.90
26743;DHT22;14341;51.256;22.478;2022-10-24T16:53:49;12.30;99.90
26743;DHT22;14341;51.256;22.478;2022-10-24T16:56:52;12.30;99.90
26743;DHT22;14341;51.256;22.478;2022-10-24T16:59:56;12.30;99.90
26743;DHT22;14341;51.256;22.478;2022-10-24T17:02:59;12.20;99.90
26743;DHT22;14341;51.256;22.478;2022-10-24T17:06:03;12.10;99.90
26743;DHT22;14341;51.256;22.478;2022-10-24T17:09:08;12.10;99.90
26743;DHT22;14341;51.256;22.478;2022-10-24T17:12:12;12.00;99.90
26743;DHT22;14341;51.256;22.478;2022-10-24T17:15:19;12.00;99.90
26743;DHT22;14341;51.256;22.478;2022-10-24T17:18:24;12.00;99.90
26743;DHT22;14341;51.256;22.478;2022-10-24T17:21:27;11.90;99.90
26743;DHT22;14341;51.256;22.478;2022-10-24T17:24:32;11.90;99.90
26743;DHT22;14341;51.256;22.478;2022-10-24T17:27:36;11.80;99.90
26743;DHT22;14341;51.256;22.478;2022-10-24T17:30:39;11.70;99.90
26743;DHT22;14341;51.256;22.478;2022-10-24T17:33:44;11.70;99.90
26743;DHT22;14341;51.256;22.478;2022-10-24T17:36:55;11.70;99.90
26743;DHT22;14341;51.256;22.478;2022-10-24T17:40:11;11.90;99.90
26743;DHT22;14341;51.256;22.478;2022-10-24T17:43:19;11.80;99.90
26743;DHT22;14341;51.256;22.478;2022-10-24T17:46:23;11.90;99.90
26743;DHT22;14341;51.256;22.478;2022-10-24T17:49:27;12.10;99.90
26743;DHT22;14341;51.256;22.478;2022-10-24T17:52:30;12.10;99.90
26743;DHT22;14341;51.256;22.478;2022-10-24T17:55:35;12.00;99.90
26743;DHT22;14341;51.256;22.478;2022-10-24T17:58:48;12.10;99.90
26743;DHT22;14341;51.256;22.478;2022-10-24T18:01:52;12.10;99.90
26743;DHT22;14341;51.256;22.478;2022-10-24T18:04:56;12.10;99.90
26743;DHT22;14341;51.256;22.478;2022-10-24T18:08:01;12.10;99.90
26743;DHT22;14341;51.256;22.478;2022-10-24T18:11:07;12.10;99.90
26743;DHT22;14341;51.256;22.478;2022-10-24T18:14:11;12.10;99.90
26743;DHT22;14341;51.256;22.478;2022-10-24T18:17:14;12.00;99.90
26743;DHT22;14341;51.256;22.478;2022-10-24T18:20:19;12.00;99.90
26743;DHT22;14341;51.256;22.478;2022-10-24T18:23:23;12.10;99.90
26743;DHT22;14341;51.256;22.478;2022-10-24T18:26:28;11.90;99.90
26743;DHT22;14341;51.256;22.478;2022-10-24T18:29:31;12.00;99.90
26743;DHT22;14341;51.256;22.478;2022-10-24T18:32:36;11.90;99.90
26743;DHT22;14341;51.256;22.478;2022-10-24T18:35:41;11.90;99.90
26743;DHT22;14341;51.256;22.478;2022-10-24T18:38:46;11.80;99.90
26743;DHT22;14341;51.256;22.478;2022-10-24T18:41:55;11.80;99.90
26743;DHT22;14341;51.256;22.478;2022-10-24T18:45:04;11.70;99.90
26743;DHT22;14341;51.256;22.478;2022-10-24T18:48:10;11.60;99.90
26743;DHT22;14341;51.256;22.478;2022-10-24T18:51:25;11.60;99.90
26743;DHT22;14341;51.256;22.478;2022-10-24T18:54:35;11.50;99.90
26743;DHT22;14341;51.256;22.478;2022-10-24T18:57:42;11.60;99.90
26743;DHT22;14341;51.256;22.478;2022-10-24T19:00:47;11.50;99.90
26743;DHT22;14341;51.256;22.478;2022-10-24T19:03:56;11.50;99.90
26743;DHT22;14341;51.256;22.478;2022-10-24T19:07:05;11.40;99.90
26743;DHT22;14341;51.256;22.478;2022-10-24T19:10:15;11.40;99.90
26743;DHT22;14341;51.256;22.478;2022-10-24T19:13:21;11.30;99.90
26743;DHT22;14341;51.256;22.478;2022-10-24T19:16:25;11.40;99.90
26743;DHT22;14341;51.256;22.478;2022-10-24T19:19:33;11.40;99.90
26743;DHT22;14341;51.256;22.478;2022-10-24T19:22:37;11.20;99.90
26743;DHT22;14341;51.256;22.478;2022-10-24T19:25:45;11.10;99.90
26743;DHT22;14341;51.256;22.478;2022-10-24T19:28:54;11.00;99.90
26743;DHT22;14341;51.256;22.478;2022-10-24T19:32:04;11.00;99.90